createdAt,value
2016-08-08T00:00:59.481Z,746.82
2016-08-08T00:01:59.468Z,746.83
2016-08-08T00:02:59.460Z,746.82
2016-08-08T00:03:59.458Z,746.84
2016-08-08T00:04:59.454Z,746.84
2016-08-08T00:05:59.441Z,746.81
2016-08-08T00:06:59.445Z,746.79
2016-08-08T00:07:59.434Z,746.82
2016-08-08T00:08:59.427Z,746.78
2016-08-08T00:09:59.420Z,746.75
2016-08-08T00:10:59.413Z,746.73
2016-08-08T00:11:59.399Z,746.76
2016-08-08T00:12:59.392Z,746.72
2016-08-08T00:13:59.392Z,746.73
2016-08-08T00:14:59.380Z,746.69
2016-08-08T00:15:59.371Z,746.68
2016-08-08T00:16:59.371Z,746.69
2016-08-08T00:17:59.358Z,746.71
2016-08-08T00:18:59.358Z,746.68
2016-08-08T00:19:59.351Z,746.7
2016-08-08T00:20:59.337Z,746.71
2016-08-08T00:21:59.338Z,746.65
2016-08-08T00:22:59.329Z,746.67
2016-08-08T00:23:59.328Z,746.65
2016-08-08T00:24:59.309Z,746.65
2016-08-08T00:25:59.304Z,746.64
2016-08-08T00:26:59.303Z,746.63
2016-08-08T00:27:59.297Z,746.62
2016-08-08T00:28:59.290Z,746.62
2016-08-08T00:29:59.284Z,746.59
2016-08-08T00:30:59.269Z,746.61
2016-08-08T00:31:59.269Z,746.6
2016-08-08T00:32:59.263Z,746.6
2016-08-08T00:33:59.256Z,746.64
2016-08-08T00:34:59.248Z,746.65
2016-08-08T00:35:59.235Z,746.62
2016-08-08T00:36:59.235Z,746.63
2016-08-08T00:37:59.228Z,746.59
2016-08-08T00:38:59.215Z,746.61
2016-08-08T00:39:59.208Z,746.55
2016-08-08T00:40:59.202Z,746.55
2016-08-08T00:41:59.201Z,746.55
2016-08-08T00:42:59.191Z,746.53
2016-08-08T00:43:59.182Z,746.54
2016-08-08T00:44:59.176Z,746.53
2016-08-08T00:45:59.168Z,746.51
2016-08-08T00:46:59.161Z,746.53
2016-08-08T00:47:59.161Z,746.52
2016-08-08T00:48:59.146Z,746.48
2016-08-08T00:49:59.140Z,746.49
2016-08-08T00:50:59.134Z,746.52
2016-08-08T00:51:59.128Z,746.46
2016-08-08T00:52:59.128Z,746.45
2016-08-08T00:53:59.115Z,746.44
2016-08-08T00:54:59.106Z,746.48
2016-08-08T00:55:59.101Z,746.44
2016-08-08T00:56:59.100Z,746.43
2016-08-08T00:57:59.087Z,746.42
2016-08-08T00:58:59.081Z,746.4
2016-08-08T00:59:59.080Z,746.41
2016-08-08T01:00:59.067Z,746.38
2016-08-08T01:01:59.063Z,746.37
2016-08-08T01:02:59.060Z,746.4
2016-08-08T01:03:59.046Z,746.41
2016-08-08T01:04:59.039Z,746.35
2016-08-08T01:05:59.035Z,746.37
2016-08-08T01:06:59.033Z,746.39
2016-08-08T01:07:59.018Z,746.39
2016-08-08T01:08:59.013Z,746.4
2016-08-08T01:09:59.007Z,746.37
2016-08-08T01:10:59.005Z,746.38
2016-08-08T01:11:58.998Z,746.38
2016-08-08T01:12:58.999Z,746.37
2016-08-08T01:13:58.985Z,746.35
2016-08-08T01:14:58.977Z,746.37
2016-08-08T01:15:58.965Z,746.37
2016-08-08T01:16:58.964Z,746.35
2016-08-08T01:17:58.952Z,746.35
2016-08-08T01:18:58.950Z,746.38
2016-08-08T01:19:58.938Z,746.35
2016-08-08T01:20:58.931Z,746.34
2016-08-08T01:21:58.929Z,746.34
2016-08-08T01:22:58.916Z,746.36
2016-08-08T01:23:58.916Z,746.36
2016-08-08T01:24:58.909Z,746.32
2016-08-08T01:25:58.895Z,746.31
2016-08-08T01:26:58.888Z,746.34
2016-08-08T01:27:58.889Z,746.32
2016-08-08T01:28:58.882Z,746.31
2016-08-08T01:29:58.868Z,746.31
2016-08-08T01:30:58.867Z,746.26
2016-08-08T01:31:58.861Z,746.28
2016-08-08T01:32:58.853Z,746.25
2016-08-08T01:33:58.858Z,746.23
2016-08-08T01:34:58.832Z,746.25
2016-08-08T01:35:58.826Z,746.21
2016-08-08T01:36:58.818Z,746.22
2016-08-08T01:37:58.812Z,746.21
2016-08-08T01:38:58.804Z,746.2
2016-08-08T01:39:58.798Z,746.21
2016-08-08T01:40:58.790Z,746.18
2016-08-08T01:41:58.784Z,746.17
2016-08-08T01:42:58.777Z,746.13
2016-08-08T01:43:58.769Z,746.1
2016-08-08T01:44:58.784Z,746.11
2016-08-08T01:45:58.763Z,746.12
2016-08-08T01:46:58.750Z,746.1
2016-08-08T01:47:58.743Z,746.07
2016-08-08T01:48:58.742Z,746.07
2016-08-08T01:49:58.736Z,746.09
2016-08-08T01:50:58.728Z,746.08
2016-08-08T01:51:58.727Z,746.12
2016-08-08T01:52:58.715Z,746.09
2016-08-08T01:53:58.708Z,746.08
2016-08-08T01:54:58.694Z,746.08
2016-08-08T01:55:58.687Z,746.08
2016-08-08T01:56:58.688Z,746.09
2016-08-08T01:57:58.681Z,746.08
2016-08-08T01:58:58.666Z,746.07
2016-08-08T01:59:58.667Z,746.05
2016-08-08T02:00:58.654Z,746.04
2016-08-08T02:01:58.653Z,746.06
2016-08-08T02:02:58.639Z,746.04
2016-08-08T02:03:58.633Z,746.09
2016-08-08T02:04:58.625Z,746.05
2016-08-08T02:05:58.625Z,746.04
2016-08-08T02:06:58.618Z,746.05
2016-08-08T02:07:58.606Z,746.06
2016-08-08T02:08:58.600Z,746.03
2016-08-08T02:09:58.598Z,746.04
2016-08-08T02:10:58.590Z,746.01
2016-08-08T02:11:58.577Z,746
2016-08-08T02:12:58.570Z,746
2016-08-08T02:13:58.563Z,745.99
2016-08-08T02:14:58.558Z,745.99
2016-08-08T02:15:58.557Z,745.99
2016-08-08T02:16:58.549Z,745.97
2016-08-08T02:17:58.541Z,745.98
2016-08-08T02:18:58.527Z,745.99
2016-08-08T02:19:58.528Z,745.97
2016-08-08T02:20:58.520Z,745.96
2016-08-08T02:21:58.505Z,745.96
2016-08-08T02:22:58.506Z,745.99
2016-08-08T02:23:58.499Z,745.93
2016-08-08T02:24:58.491Z,745.96
2016-08-08T02:25:58.484Z,745.97
2016-08-08T02:27:58.470Z,745.92
2016-08-08T02:28:58.455Z,745.93
2016-08-08T02:29:58.448Z,745.97
2016-08-08T02:30:58.449Z,745.92
2016-08-08T02:31:58.434Z,745.93
2016-08-08T02:32:58.435Z,745.91
2016-08-08T02:33:58.419Z,745.92
2016-08-08T02:34:58.412Z,745.91
2016-08-08T02:35:58.411Z,745.91
2016-08-08T02:36:58.405Z,745.9
2016-08-08T02:37:58.398Z,745.91
2016-08-08T02:38:58.384Z,745.89
2016-08-08T02:39:58.382Z,745.91
2016-08-08T02:40:58.381Z,745.89
2016-08-08T02:42:58.361Z,745.85
2016-08-08T02:43:58.348Z,745.85
2016-08-08T02:44:58.341Z,745.87
2016-08-08T02:45:58.340Z,745.85
2016-08-08T02:46:58.325Z,745.85
2016-08-08T02:47:58.319Z,745.83
2016-08-08T02:48:58.319Z,745.86
2016-08-08T02:49:58.305Z,745.83
2016-08-08T02:50:58.298Z,745.84
2016-08-08T02:51:58.289Z,745.83
2016-08-08T02:52:58.284Z,745.83
2016-08-08T02:53:58.284Z,745.81
2016-08-08T02:54:58.269Z,745.8
2016-08-08T02:55:58.263Z,745.84
2016-08-08T02:56:58.255Z,745.78
2016-08-08T02:57:58.255Z,745.8
2016-08-08T02:58:58.241Z,745.82
2016-08-08T02:59:58.234Z,745.78
2016-08-08T03:00:58.234Z,745.8
2016-08-08T03:01:58.220Z,745.81
2016-08-08T03:02:58.220Z,745.79
2016-08-08T03:03:58.207Z,745.78
2016-08-08T03:04:58.203Z,745.78
2016-08-08T03:05:58.200Z,745.79
2016-08-08T03:06:58.186Z,745.76
2016-08-08T03:07:58.179Z,745.72
2016-08-08T03:08:58.171Z,745.73
2016-08-08T03:09:58.175Z,745.71
2016-08-08T03:10:58.165Z,745.78
2016-08-08T03:11:58.152Z,745.72
2016-08-08T03:12:58.151Z,745.76
2016-08-08T03:13:58.144Z,745.7
2016-08-08T03:14:58.130Z,745.71
2016-08-08T03:15:58.125Z,745.74
2016-08-08T03:16:58.118Z,745.72
2016-08-08T03:17:58.117Z,745.71
2016-08-08T03:18:58.103Z,745.71
2016-08-08T03:19:58.102Z,745.72
2016-08-08T03:20:58.088Z,745.72
2016-08-08T03:21:58.089Z,745.75
2016-08-08T03:22:58.073Z,745.73
2016-08-08T03:23:58.066Z,745.73
2016-08-08T03:24:58.060Z,745.75
2016-08-08T03:25:58.057Z,745.71
2016-08-08T03:26:58.048Z,745.74
2016-08-08T03:27:58.047Z,745.71
2016-08-08T03:28:58.028Z,745.68
2016-08-08T03:29:58.032Z,745.73
2016-08-08T03:30:58.018Z,745.73
2016-08-08T03:31:58.011Z,745.7
2016-08-08T03:32:58.004Z,745.71
2016-08-08T03:33:57.996Z,745.75
2016-08-08T03:34:57.982Z,745.7
2016-08-08T03:35:57.973Z,745.71
2016-08-08T03:36:57.966Z,745.71
2016-08-08T03:37:57.957Z,745.73
2016-08-08T03:38:57.957Z,745.76
2016-08-08T03:39:57.949Z,745.75
2016-08-08T03:40:57.941Z,745.69
2016-08-08T03:41:57.934Z,745.72
2016-08-08T03:42:57.918Z,745.71
2016-08-08T03:43:57.911Z,745.69
2016-08-08T03:44:57.903Z,745.76
2016-08-08T03:45:57.902Z,745.69
2016-08-08T03:46:57.894Z,745.69
2016-08-08T03:47:57.885Z,745.71
2016-08-08T03:48:57.872Z,745.73
2016-08-08T03:49:57.871Z,745.71
2016-08-08T03:50:57.862Z,745.7
2016-08-08T03:51:57.857Z,745.7
2016-08-08T03:52:57.840Z,745.74
2016-08-08T03:53:57.831Z,745.71
2016-08-08T03:54:57.831Z,745.67
2016-08-08T03:55:57.819Z,745.69
2016-08-08T03:56:57.814Z,745.73
2016-08-08T03:57:57.801Z,745.74
2016-08-08T03:58:57.798Z,745.75
2016-08-08T03:59:57.784Z,745.73
2016-08-08T04:00:57.775Z,745.78
2016-08-08T04:01:57.769Z,745.75
2016-08-08T04:02:57.767Z,745.74
2016-08-08T04:03:57.752Z,745.73
2016-08-08T04:04:57.752Z,745.73
2016-08-08T04:05:57.738Z,745.73
2016-08-08T04:06:57.729Z,745.73
2016-08-08T04:07:57.721Z,745.77
2016-08-08T04:08:57.719Z,745.73
2016-08-08T04:09:57.712Z,745.69
2016-08-08T04:10:57.697Z,745.76
2016-08-08T04:11:57.688Z,745.71
2016-08-08T04:12:57.681Z,745.68
2016-08-08T04:13:57.674Z,745.73
2016-08-08T04:14:57.665Z,745.68
2016-08-08T04:15:57.658Z,745.7
2016-08-08T04:16:57.657Z,745.67
2016-08-08T04:17:57.642Z,745.68
2016-08-08T04:18:57.634Z,745.72
2016-08-08T04:19:57.625Z,745.7
2016-08-08T04:20:57.620Z,745.64
2016-08-08T04:21:57.616Z,745.7
2016-08-08T04:22:57.602Z,745.65
2016-08-08T04:23:57.601Z,745.67
2016-08-08T04:24:57.585Z,745.68
2016-08-08T04:25:57.585Z,745.62
2016-08-08T04:26:57.571Z,745.68
2016-08-08T04:27:57.564Z,745.68
2016-08-08T04:28:57.567Z,745.66
2016-08-08T04:29:57.554Z,745.65
2016-08-08T04:30:57.546Z,745.67
2016-08-08T04:31:57.531Z,745.69
2016-08-08T04:32:57.529Z,745.7
2016-08-08T04:33:57.515Z,745.67
2016-08-08T04:34:57.515Z,745.72
2016-08-08T04:35:57.503Z,745.73
2016-08-08T04:36:57.491Z,745.75
2016-08-08T04:37:57.483Z,745.74
2016-08-08T04:38:57.483Z,745.73
2016-08-08T04:39:57.468Z,745.7
2016-08-08T04:40:57.471Z,745.72
2016-08-08T04:41:57.459Z,745.72
2016-08-08T04:42:57.451Z,745.73
2016-08-08T04:43:57.437Z,745.73
2016-08-08T04:44:57.437Z,745.72
2016-08-08T04:45:57.422Z,745.75
2016-08-08T04:46:57.414Z,745.74
2016-08-08T04:47:57.414Z,745.71
2016-08-08T04:48:57.406Z,745.71
2016-08-08T04:49:57.394Z,745.74
2016-08-08T04:50:57.396Z,745.75
2016-08-08T04:51:57.378Z,745.76
2016-08-08T04:52:57.379Z,745.74
2016-08-08T04:53:57.365Z,745.75
2016-08-08T04:54:57.356Z,745.74
2016-08-08T04:55:57.351Z,745.75
2016-08-08T04:56:57.350Z,745.79
2016-08-08T04:57:57.343Z,745.76
2016-08-08T04:58:57.329Z,745.79
2016-08-08T04:59:57.323Z,745.81
2016-08-08T05:00:57.316Z,745.8
2016-08-08T05:01:57.316Z,745.78
2016-08-08T05:02:57.309Z,745.82
2016-08-08T05:03:57.303Z,745.72
2016-08-08T05:04:57.289Z,745.77
2016-08-08T05:05:57.282Z,745.76
2016-08-08T05:06:57.276Z,745.83
2016-08-08T05:07:57.270Z,745.81
2016-08-08T05:08:57.262Z,745.86
2016-08-08T05:09:57.263Z,745.84
2016-08-08T05:10:57.251Z,745.81
2016-08-08T05:11:57.242Z,745.82
2016-08-08T05:12:57.245Z,745.76
2016-08-08T05:13:57.244Z,745.86
2016-08-08T05:14:57.226Z,745.76
2016-08-08T05:15:57.218Z,745.8
2016-08-08T05:16:57.215Z,745.75
2016-08-08T05:17:57.214Z,745.76
2016-08-08T05:18:57.202Z,745.82
2016-08-08T05:19:57.203Z,745.81
2016-08-08T05:20:57.190Z,745.82
2016-08-08T05:21:57.184Z,745.83
2016-08-08T05:22:57.184Z,745.83
2016-08-08T05:23:57.179Z,745.84
2016-08-08T05:24:57.174Z,745.81
2016-08-08T05:25:57.168Z,745.8
2016-08-08T05:26:57.155Z,745.86
2016-08-08T05:27:57.157Z,745.9
2016-08-08T05:28:57.151Z,745.83
2016-08-08T05:29:57.145Z,745.8
2016-08-08T05:30:57.132Z,745.84
2016-08-08T05:31:57.126Z,745.85
2016-08-08T05:32:57.128Z,745.85
2016-08-08T05:33:57.115Z,745.86
2016-08-08T05:34:57.109Z,745.83
2016-08-08T05:35:57.111Z,745.81
2016-08-08T05:36:57.106Z,745.79
2016-08-08T05:37:57.093Z,745.73
2016-08-08T05:38:57.094Z,745.8
2016-08-08T05:39:57.083Z,745.78
2016-08-08T05:40:57.076Z,745.76
2016-08-08T05:41:57.076Z,745.76
2016-08-08T05:42:57.067Z,745.77
2016-08-08T05:43:57.067Z,745.75
2016-08-08T05:44:57.054Z,745.79
2016-08-08T05:45:57.049Z,745.76
2016-08-08T05:46:57.050Z,745.74
2016-08-08T05:47:57.051Z,745.77
2016-08-08T05:48:57.038Z,745.76
2016-08-08T05:49:57.027Z,745.79
2016-08-08T05:50:57.022Z,745.77
2016-08-08T05:51:57.025Z,745.77
2016-08-08T05:52:57.011Z,745.84
2016-08-08T05:53:57.009Z,745.83
2016-08-08T05:54:57.001Z,745.81
2016-08-08T05:55:57.002Z,745.83
2016-08-08T05:56:56.997Z,745.83
2016-08-08T05:58:56.982Z,745.8
2016-08-08T05:59:56.977Z,745.82
2016-08-08T06:00:56.984Z,745.81
2016-08-08T06:01:56.967Z,745.81
2016-08-08T06:02:56.969Z,745.79
2016-08-08T06:03:56.964Z,745.79
2016-08-08T06:04:56.959Z,745.77
2016-08-08T06:05:56.949Z,745.8
2016-08-08T06:06:56.949Z,745.77
2016-08-08T06:07:56.946Z,745.76
2016-08-08T06:08:56.949Z,745.77
2016-08-08T06:09:56.930Z,745.72
2016-08-08T06:10:56.931Z,745.77
2016-08-08T06:11:56.929Z,745.81
2016-08-08T06:13:56.921Z,745.8
2016-08-08T06:14:56.911Z,745.79
2016-08-08T06:15:56.908Z,745.8
2016-08-08T06:16:56.910Z,745.83
2016-08-08T06:17:56.899Z,745.8
2016-08-08T06:18:56.903Z,745.81
2016-08-08T06:19:56.899Z,745.82
2016-08-08T06:20:56.890Z,745.84
2016-08-08T06:21:56.893Z,745.82
2016-08-08T06:22:56.889Z,745.81
2016-08-08T06:23:56.880Z,745.85
2016-08-08T06:24:56.876Z,745.82
2016-08-08T06:25:56.880Z,745.82
2016-08-08T06:26:56.877Z,745.82
2016-08-08T06:28:56.864Z,745.78
2016-08-08T06:29:56.868Z,745.78
2016-08-08T06:30:56.865Z,745.82
2016-08-08T06:31:56.862Z,745.83
2016-08-08T06:32:56.859Z,745.86
2016-08-08T06:33:56.850Z,745.83
2016-08-08T06:34:56.854Z,745.81
2016-08-08T06:35:56.845Z,745.89
2016-08-08T06:36:56.849Z,745.84
2016-08-08T06:37:56.847Z,745.88
2016-08-08T06:38:56.837Z,745.87
2016-08-08T06:39:56.835Z,745.84
2016-08-08T06:40:56.846Z,745.87
2016-08-08T06:41:56.839Z,745.85
2016-08-08T06:43:56.827Z,745.89
2016-08-08T06:44:56.833Z,745.86
2016-08-08T06:45:56.832Z,745.9
2016-08-08T06:46:56.821Z,745.93
2016-08-08T06:47:56.820Z,745.9
2016-08-08T06:48:56.825Z,745.95
2016-08-08T06:49:56.816Z,745.95
2016-08-08T06:50:56.821Z,745.95
2016-08-08T06:51:56.812Z,745.95
2016-08-08T06:52:56.813Z,745.96
2016-08-08T06:53:56.817Z,745.94
2016-08-08T06:54:56.816Z,745.93
2016-08-08T06:55:56.814Z,745.93
2016-08-08T06:56:56.806Z,745.94
2016-08-08T06:58:56.803Z,745.87
2016-08-08T06:59:56.809Z,745.86
2016-08-08T07:00:56.801Z,745.9
2016-08-08T07:01:56.807Z,745.95
2016-08-08T07:02:56.806Z,746
2016-08-08T07:03:56.806Z,745.96
2016-08-08T07:04:56.800Z,745.98
2016-08-08T07:05:56.804Z,745.99
2016-08-08T07:06:56.805Z,745.98
2016-08-08T07:07:56.810Z,746
2016-08-08T07:08:56.804Z,745.97
2016-08-08T07:09:56.798Z,745.98
2016-08-08T07:10:56.797Z,746.01
2016-08-08T07:11:56.797Z,746.02
2016-08-08T07:12:56.803Z,746.01
2016-08-08T07:13:56.804Z,746.01
2016-08-08T07:14:56.798Z,746.01
2016-08-08T07:15:56.797Z,746
2016-08-08T07:16:56.798Z,745.99
2016-08-08T07:17:56.805Z,746.03
2016-08-08T07:18:56.807Z,746.04
2016-08-08T07:19:56.805Z,746.01
2016-08-08T07:20:56.805Z,746.04
2016-08-08T07:21:56.799Z,746.06
2016-08-08T07:22:56.806Z,746.05
2016-08-08T07:23:56.806Z,746.04
2016-08-08T07:24:56.798Z,746.06
2016-08-08T07:25:56.799Z,746.03
2016-08-08T07:26:56.799Z,746.03
2016-08-08T07:27:56.800Z,746.07
2016-08-08T07:28:56.807Z,746.01
2016-08-08T07:29:56.808Z,746.02
2016-08-08T07:30:56.800Z,746.04
2016-08-08T07:31:56.800Z,746.04
2016-08-08T07:32:56.800Z,746.04
2016-08-08T07:33:56.802Z,746.07
2016-08-08T07:34:56.799Z,746.06
2016-08-08T07:35:56.807Z,746.12
2016-08-08T07:36:56.809Z,746.09
2016-08-08T07:37:56.801Z,746.1
2016-08-08T07:38:56.809Z,746.08
2016-08-08T07:39:56.810Z,746.07
2016-08-08T07:40:56.809Z,746.07
2016-08-08T07:41:56.810Z,746.06
2016-08-08T07:42:56.808Z,746.06
2016-08-08T07:43:56.805Z,746.1
2016-08-08T07:44:56.812Z,746.06
2016-08-08T07:45:56.805Z,746.1
2016-08-08T07:46:56.805Z,746.1
2016-08-08T07:47:56.811Z,746.1
2016-08-08T07:48:56.812Z,746.08
2016-08-08T07:49:56.811Z,746.07
2016-08-08T07:50:56.804Z,746.08
2016-08-08T07:51:56.810Z,746.04
2016-08-08T07:52:56.809Z,746.04
2016-08-08T07:53:56.802Z,746.06
2016-08-08T07:54:56.808Z,746.07
2016-08-08T07:55:56.801Z,746.08
2016-08-08T07:56:56.800Z,746.1
2016-08-08T07:57:56.807Z,746.1
2016-08-08T07:58:56.807Z,746.08
2016-08-08T07:59:56.801Z,746.15
2016-08-08T08:00:56.808Z,746.14
2016-08-08T08:01:56.807Z,746.15
2016-08-08T08:02:56.808Z,746.13
2016-08-08T08:03:56.803Z,746.14
2016-08-08T08:04:56.801Z,746.12
2016-08-08T08:05:56.809Z,746.1
2016-08-08T08:06:56.810Z,746.11
2016-08-08T08:07:56.801Z,746.11
2016-08-08T08:08:56.810Z,746.09
2016-08-08T08:09:56.802Z,746.11
2016-08-08T08:10:56.802Z,746.12
2016-08-08T08:11:56.803Z,746.14
2016-08-08T08:12:56.803Z,746.13
2016-08-08T08:13:56.811Z,746.13
2016-08-08T08:14:56.810Z,746.11
2016-08-08T08:15:56.804Z,746.09
2016-08-08T08:16:56.805Z,746.11
2016-08-08T08:17:56.811Z,746.08
2016-08-08T08:18:56.811Z,746.07
2016-08-08T08:19:56.811Z,746.06
2016-08-08T08:20:56.805Z,746.03
2016-08-08T08:21:56.810Z,746.05
2016-08-08T08:22:56.805Z,746.05
2016-08-08T08:23:56.808Z,746.08
2016-08-08T08:24:56.812Z,746.08
2016-08-08T08:25:56.806Z,746.08
2016-08-08T08:26:56.812Z,746.1
2016-08-08T08:27:56.812Z,746.14
2016-08-08T08:28:56.813Z,746.09
2016-08-08T08:29:56.812Z,746.1
2016-08-08T08:30:56.812Z,746.07
2016-08-08T08:31:56.813Z,746.08
2016-08-08T08:32:56.806Z,746.1
2016-08-08T08:33:56.807Z,746.07
2016-08-08T08:34:56.814Z,746.08
2016-08-08T08:35:56.807Z,746.06
2016-08-08T08:36:56.813Z,746.07
2016-08-08T08:37:56.814Z,746.05
2016-08-08T08:38:56.814Z,746.06
2016-08-08T08:39:56.809Z,746.06
2016-08-08T08:40:56.808Z,746.08
2016-08-08T08:41:56.814Z,746.1
2016-08-08T08:42:56.808Z,746.12
2016-08-08T08:43:56.815Z,746.1
2016-08-08T08:44:56.808Z,746.05
2016-08-08T08:45:56.815Z,746.09
2016-08-08T08:46:56.815Z,746.11
2016-08-08T08:47:56.807Z,746.1
2016-08-08T08:48:56.814Z,746.1
2016-08-08T08:49:56.807Z,746.1
2016-08-08T08:50:56.808Z,746.1
2016-08-08T08:51:56.813Z,746.1
2016-08-08T08:52:56.807Z,746.11
2016-08-08T08:53:56.808Z,746.14
2016-08-08T08:54:56.805Z,746.1
2016-08-08T08:55:56.816Z,746.14
2016-08-08T08:56:56.809Z,746.16
2016-08-08T08:57:56.814Z,746.14
2016-08-08T08:58:56.815Z,746.17
2016-08-08T08:59:56.815Z,746.17
2016-08-08T09:00:56.816Z,746.13
2016-08-08T09:01:56.816Z,746.16
2016-08-08T09:02:56.808Z,746.14
2016-08-08T09:03:56.817Z,746.13
2016-08-08T09:04:56.816Z,746.16
2016-08-08T09:05:56.817Z,746.12
2016-08-08T09:06:56.817Z,746.09
2016-08-08T09:07:56.817Z,746.15
2016-08-08T09:08:56.818Z,746.16
2016-08-08T09:09:56.812Z,746.15
2016-08-08T09:10:56.811Z,746.15
2016-08-08T09:11:56.818Z,746.21
2016-08-08T09:12:56.819Z,746.18
2016-08-08T09:13:56.818Z,746.14
2016-08-08T09:14:56.819Z,746.2
2016-08-08T09:15:56.820Z,746.18
2016-08-08T09:16:56.812Z,746.13
2016-08-08T09:17:56.812Z,746.14
2016-08-08T09:18:56.819Z,746.17
2016-08-08T09:19:56.819Z,746.09
2016-08-08T09:20:56.811Z,746.16
2016-08-08T09:21:56.812Z,746.17
2016-08-08T09:22:56.818Z,746.18
2016-08-08T09:23:56.821Z,746.09
2016-08-08T09:24:56.811Z,746.14
2016-08-08T09:25:56.813Z,746.13
2016-08-08T09:26:56.808Z,746.18
2016-08-08T09:27:56.815Z,746.09
2016-08-08T09:28:56.808Z,746.12
2016-08-08T09:29:56.810Z,746.11
2016-08-08T09:30:56.812Z,746.12
2016-08-08T09:31:56.803Z,746.14
2016-08-08T09:32:56.809Z,746.12
2016-08-08T09:33:56.801Z,746.11
2016-08-08T09:34:56.800Z,746.14
2016-08-08T09:35:56.806Z,746.09
2016-08-08T09:36:56.803Z,746.11
2016-08-08T09:37:56.803Z,746.16
2016-08-08T09:38:56.792Z,746.12
2016-08-08T09:39:56.798Z,746.15
2016-08-08T09:40:56.790Z,746.17
2016-08-08T09:41:56.788Z,746.15
2016-08-08T09:42:56.786Z,746.14
2016-08-08T09:43:56.792Z,746.13
2016-08-08T09:44:56.784Z,746.12
2016-08-08T09:45:56.789Z,746.09
2016-08-08T09:46:56.781Z,746.09
2016-08-08T09:47:56.780Z,746.08
2016-08-08T09:48:56.787Z,746.07
2016-08-08T09:49:56.785Z,746.1
2016-08-08T09:50:56.777Z,746.11
2016-08-08T09:51:56.782Z,746.05
2016-08-08T09:52:56.781Z,746.1
2016-08-08T09:53:56.772Z,746.03
2016-08-08T09:54:56.777Z,746.02
2016-08-08T09:55:56.776Z,746.01
2016-08-08T09:56:56.768Z,746.06
2016-08-08T09:57:56.777Z,746.02
2016-08-08T09:58:56.771Z,746.01
2016-08-08T09:59:56.763Z,746.01
2016-08-08T10:00:56.768Z,746.02
2016-08-08T10:01:56.760Z,746.02
2016-08-08T10:02:56.759Z,746.01
2016-08-08T10:03:56.765Z,745.99
2016-08-08T10:04:56.763Z,746
2016-08-08T10:05:56.755Z,745.97
2016-08-08T10:06:56.762Z,745.94
2016-08-08T10:07:56.752Z,745.92
2016-08-08T10:08:56.752Z,745.88
2016-08-08T10:09:56.751Z,745.93
2016-08-08T10:10:56.756Z,745.91
2016-08-08T10:11:56.756Z,745.96
2016-08-08T10:12:56.745Z,745.93
2016-08-08T10:13:56.754Z,745.92
2016-08-08T10:14:56.749Z,745.85
2016-08-08T10:15:56.740Z,745.95
2016-08-08T10:16:56.745Z,745.92
2016-08-08T10:17:56.738Z,745.91
2016-08-08T10:18:56.743Z,745.92
2016-08-08T10:19:56.740Z,745.9
2016-08-08T10:20:56.731Z,745.91
2016-08-08T10:21:56.729Z,745.91
2016-08-08T10:22:56.725Z,745.89
2016-08-08T10:23:56.730Z,745.92
2016-08-08T10:24:56.720Z,745.92
2016-08-08T10:25:56.718Z,745.86
2016-08-08T10:26:56.722Z,745.85
2016-08-08T10:27:56.712Z,745.85
2016-08-08T10:28:56.710Z,745.85
2016-08-08T10:29:56.706Z,745.88
2016-08-08T10:30:56.704Z,745.84
2016-08-08T10:31:56.703Z,745.85
2016-08-08T10:32:56.706Z,745.86
2016-08-08T10:33:56.696Z,745.84
2016-08-08T10:34:56.694Z,745.88
2016-08-08T10:35:56.692Z,745.88
2016-08-08T10:36:56.689Z,745.82
2016-08-08T10:37:56.685Z,745.86
2016-08-08T10:38:56.689Z,745.88
2016-08-08T10:39:56.681Z,745.84
2016-08-08T10:40:56.684Z,745.88
2016-08-08T10:41:56.675Z,745.91
2016-08-08T10:42:56.674Z,745.93
2016-08-08T10:43:56.678Z,745.96
2016-08-08T10:44:56.667Z,745.91
2016-08-08T10:45:56.666Z,745.89
2016-08-08T10:46:56.664Z,745.89
2016-08-08T10:47:56.669Z,745.89
2016-08-08T10:48:56.665Z,745.9
2016-08-08T10:49:56.658Z,745.91
2016-08-08T10:50:56.663Z,745.86
2016-08-08T10:51:56.662Z,745.87
2016-08-08T10:52:56.658Z,745.85
2016-08-08T10:53:56.651Z,745.92
2016-08-08T10:54:56.656Z,745.95
2016-08-08T10:55:56.653Z,745.91
2016-08-08T10:56:56.645Z,745.9
2016-08-08T10:57:56.644Z,745.93
2016-08-08T10:58:56.641Z,745.89
2016-08-08T10:59:56.639Z,745.9
2016-08-08T11:00:56.643Z,745.91
2016-08-08T11:01:56.635Z,745.94
2016-08-08T11:02:56.632Z,745.91
2016-08-08T11:03:56.629Z,745.96
2016-08-08T11:04:56.627Z,745.96
2016-08-08T11:05:56.625Z,745.96
2016-08-08T11:06:56.623Z,745.99
2016-08-08T11:07:56.626Z,746
2016-08-08T11:08:56.616Z,745.99
2016-08-08T11:09:56.613Z,745.96
2016-08-08T11:10:56.617Z,745.96
2016-08-08T11:11:56.608Z,745.95
2016-08-08T11:12:56.612Z,745.95
2016-08-08T11:13:56.607Z,745.96
2016-08-08T11:14:56.597Z,745.94
2016-08-08T11:15:56.601Z,745.95
2016-08-08T11:16:56.597Z,745.9
2016-08-08T11:17:56.586Z,745.93
2016-08-08T11:18:56.590Z,745.91
2016-08-08T11:19:56.579Z,745.9
2016-08-08T11:20:56.580Z,745.95
2016-08-08T11:21:56.577Z,746.03
2016-08-08T11:22:56.572Z,746
2016-08-08T11:23:56.569Z,745.95
2016-08-08T11:24:56.557Z,745.96
2016-08-08T11:25:56.554Z,745.97
2016-08-08T11:26:56.556Z,746
2016-08-08T11:27:56.552Z,745.96
2016-08-08T11:29:56.542Z,745.97
2016-08-08T11:30:56.530Z,745.96
2016-08-08T11:31:56.527Z,745.96
2016-08-08T11:32:56.522Z,745.98
2016-08-08T11:46:36.846Z,745.94
2016-08-08T11:47:36.838Z,746.02
2016-08-08T11:48:36.828Z,746.02
2016-08-08T11:49:36.819Z,745.97
2016-08-08T11:50:36.812Z,745.98
2016-08-08T11:51:36.812Z,745.96
2016-08-08T11:52:36.799Z,745.92
2016-08-08T11:53:36.798Z,745.93
2016-08-08T11:54:36.793Z,746.01
2016-08-08T11:55:36.780Z,745.98
2016-08-08T11:56:36.780Z,746
2016-08-08T11:57:36.768Z,745.9
2016-08-08T11:58:36.763Z,745.99
2016-08-08T11:59:36.765Z,746.04
2016-08-08T12:00:36.753Z,745.91
2016-08-08T12:01:36.746Z,745.91
2016-08-08T12:02:36.741Z,745.89
2016-08-08T12:03:36.744Z,745.93
2016-08-08T12:04:36.732Z,745.97
2016-08-08T12:05:36.733Z,746.04
2016-08-08T12:06:36.720Z,745.86
2016-08-08T12:07:36.715Z,745.86
2016-08-08T12:08:36.711Z,745.97
2016-08-08T12:09:36.712Z,745.96
2016-08-08T12:10:36.700Z,745.95
2016-08-08T12:11:36.695Z,745.97
2016-08-08T12:12:36.697Z,745.97
2016-08-08T12:13:36.692Z,745.94
2016-08-08T12:14:36.681Z,745.96
2016-08-08T12:15:36.677Z,745.96
2016-08-08T12:16:36.673Z,745.98
2016-08-08T12:17:36.679Z,745.99
2016-08-08T12:18:36.669Z,745.9
2016-08-08T12:19:36.666Z,745.89
2016-08-08T12:20:36.655Z,745.9
2016-08-08T12:21:36.652Z,745.87
2016-08-08T12:22:36.647Z,745.91
2016-08-08T12:23:36.643Z,745.93
2016-08-08T12:24:36.639Z,745.96
2016-08-08T12:25:36.638Z,745.94
2016-08-08T12:26:36.629Z,745.97
2016-08-08T12:27:36.626Z,746.01
2016-08-08T12:28:36.622Z,745.94
2016-08-08T12:29:36.619Z,745.98
2016-08-08T12:30:36.620Z,745.93
2016-08-08T12:31:36.617Z,745.92
2016-08-08T12:32:36.613Z,745.94
2016-08-08T12:33:36.601Z,745.96
2016-08-08T12:34:36.599Z,745.97
2016-08-08T12:35:36.594Z,745.96
2016-08-08T12:36:36.590Z,745.92
2016-08-08T12:37:36.584Z,745.97
2016-08-08T12:38:36.587Z,745.93
2016-08-08T12:39:36.584Z,745.94
2016-08-08T12:40:36.579Z,745.91
2016-08-08T12:41:36.569Z,745.92
2016-08-08T12:42:36.565Z,745.82
2016-08-08T12:43:36.563Z,745.85
2016-08-08T12:44:36.557Z,745.93
2016-08-08T12:45:36.561Z,745.84
2016-08-08T12:46:36.558Z,745.79
2016-08-08T12:47:36.547Z,745.77
2016-08-08T12:48:36.549Z,745.8
2016-08-08T12:49:36.544Z,745.82
2016-08-08T12:50:36.541Z,745.82
2016-08-08T12:51:36.536Z,745.87
2016-08-08T12:52:36.532Z,745.91